sensor_id;sensor_type;location;lat;lon;timestamp;P1;durP1;ratioP1;P2;durP2;ratioP2
15340;SDS011;7770;52.158;5.372;2024-03-23T00:55:45;35.70;;;18.83;;
15340;SDS011;7770;52.158;5.372;2024-03-23T00:58:31;39.27;;;20.40;;
15340;SDS011;7770;52.158;5.372;2024-03-23T01:01:17;38.20;;;18.93;;
15340;SDS011;7770;52.158;5.372;2024-03-23T01:04:03;41.33;;;19.40;;
15340;SDS011;7770;52.158;5.372;2024-03-23T01:06:49;38.90;;;19.57;;
15340;SDS011;7770;52.158;5.372;2024-03-23T01:09:35;36.50;;;19.90;;
15340;SDS011;7770;52.158;5.372;2024-03-23T01:12:24;39.43;;;19.30;;
15340;SDS011;7770;52.158;5.372;2024-03-23T01:15:10;42.67;;;18.70;;
15340;SDS011;7770;52.158;5.372;2024-03-23T01:17:56;35.20;;;18.90;;
15340;SDS011;7770;52.158;5.372;2024-03-23T01:20:42;35.23;;;19.23;;
15340;SDS011;7770;52.158;5.372;2024-03-23T01:23:28;43.67;;;19.43;;
15340;SDS011;7770;52.158;5.372;2024-03-23T01:26:14;36.83;;;19.07;;
15340;SDS011;7770;52.158;5.372;2024-03-23T01:29:00;39.20;;;19.93;;
15340;SDS011;7770;52.158;5.372;2024-03-23T01:31:46;35.97;;;18.80;;
15340;SDS011;7770;52.158;5.372;2024-03-23T01:34:32;42.00;;;20.37;;
15340;SDS011;7770;52.158;5.372;2024-03-23T01:37:18;40.40;;;20.10;;
15340;SDS011;7770;52.158;5.372;2024-03-23T01:40:04;47.60;;;20.27;;
15340;SDS011;7770;52.158;5.372;2024-03-23T01:42:55;43.63;;;19.77;;
15340;SDS011;7770;52.158;5.372;2024-03-23T01:45:47;39.53;;;18.90;;
15340;SDS011;7770;52.158;5.372;2024-03-23T01:48:33;35.23;;;18.70;;
15340;SDS011;7770;52.158;5.372;2024-03-23T01:51:19;41.30;;;19.80;;
15340;SDS011;7770;52.158;5.372;2024-03-23T01:54:05;45.90;;;19.37;;
15340;SDS011;7770;52.158;5.372;2024-03-23T01:56:52;42.87;;;19.10;;
15340;SDS011;7770;52.158;5.372;2024-03-23T01:59:39;38.90;;;19.40;;
15340;SDS011;7770;52.158;5.372;2024-03-23T02:02:26;45.23;;;20.50;;
15340;SDS011;7770;52.158;5.372;2024-03-23T02:05:12;41.30;;;19.70;;
15340;SDS011;7770;52.158;5.372;2024-03-23T02:07:58;43.20;;;21.40;;
15340;SDS011;7770;52.158;5.372;2024-03-23T02:10:44;42.80;;;19.67;;
15340;SDS011;7770;52.158;5.372;2024-03-23T02:13:30;34.63;;;18.13;;
15340;SDS011;7770;52.158;5.372;2024-03-23T02:16:17;35.90;;;18.77;;
15340;SDS011;7770;52.158;5.372;2024-03-23T02:19:03;43.87;;;17.93;;
15340;SDS011;7770;52.158;5.372;2024-03-23T02:21:49;37.30;;;18.50;;
15340;SDS011;7770;52.158;5.372;2024-03-23T02:24:35;35.47;;;17.87;;
15340;SDS011;7770;52.158;5.372;2024-03-23T02:27:22;46.20;;;19.13;;
15340;SDS011;7770;52.158;5.372;2024-03-23T02:30:10;36.20;;;17.27;;
15340;SDS011;7770;52.158;5.372;2024-03-23T02:32:56;36.03;;;16.93;;
15340;SDS011;7770;52.158;5.372;2024-03-23T02:35:43;42.07;;;17.30;;
15340;SDS011;7770;52.158;5.372;2024-03-23T02:38:30;40.70;;;15.77;;
15340;SDS011;7770;52.158;5.372;2024-03-23T02:41:16;35.13;;;15.07;;
15340;SDS011;7770;52.158;5.372;2024-03-23T02:44:08;37.00;;;15.70;;
15340;SDS011;7770;52.158;5.372;2024-03-23T02:46:57;35.53;;;14.67;;
15340;SDS011;7770;52.158;5.372;2024-03-23T02:49:43;37.23;;;15.30;;
15340;SDS011;7770;52.158;5.372;2024-03-23T02:52:29;33.60;;;13.57;;
15340;SDS011;7770;52.158;5.372;2024-03-23T02:55:15;31.77;;;14.03;;
15340;SDS011;7770;52.158;5.372;2024-03-23T02:58:01;32.93;;;14.13;;
15340;SDS011;7770;52.158;5.372;2024-03-23T03:00:47;29.57;;;13.40;;
15340;SDS011;7770;52.158;5.372;2024-03-23T03:03:33;38.23;;;13.43;;
15340;SDS011;7770;52.158;5.372;2024-03-23T03:06:25;33.40;;;13.73;;
15340;SDS011;7770;52.158;5.372;2024-03-23T03:09:11;33.07;;;13.47;;
15340;SDS011;7770;52.158;5.372;2024-03-23T03:11:57;31.77;;;12.87;;
15340;SDS011;7770;52.158;5.372;2024-03-23T03:14:43;26.97;;;12.27;;
15340;SDS011;7770;52.158;5.372;2024-03-23T03:17:29;28.03;;;12.47;;
15340;SDS011;7770;52.158;5.372;2024-03-23T03:20:15;31.53;;;12.77;;
15340;SDS011;7770;52.158;5.372;2024-03-23T03:23:03;33.33;;;12.13;;
15340;SDS011;7770;52.158;5.372;2024-03-23T03:25:50;29.13;;;10.77;;
15340;SDS011;7770;52.158;5.372;2024-03-23T03:28:36;32.17;;;11.67;;
15340;SDS011;7770;52.158;5.372;2024-03-23T03:31:22;29.67;;;11.30;;
15340;SDS011;7770;52.158;5.372;2024-03-23T03:34:08;35.03;;;10.97;;
15340;SDS011;7770;52.158;5.372;2024-03-23T03:36:54;35.20;;;10.57;;
15340;SDS011;7770;52.158;5.372;2024-03-23T03:39:41;25.30;;;9.97;;
15340;SDS011;7770;52.158;5.372;2024-03-23T03:42:27;25.40;;;9.53;;
15340;SDS011;7770;52.158;5.372;2024-03-23T03:45:13;24.23;;;9.83;;
15340;SDS011;7770;52.158;5.372;2024-03-23T03:47:59;23.00;;;8.60;;
15340;SDS011;7770;52.158;5.372;2024-03-23T03:50:45;20.10;;;8.97;;
15340;SDS011;7770;52.158;5.372;2024-03-23T03:53:31;23.83;;;8.23;;
15340;SDS011;7770;52.158;5.372;2024-03-23T03:56:17;22.93;;;8.97;;
15340;SDS011;7770;52.158;5.372;2024-03-23T03:59:03;22.53;;;8.97;;
15340;SDS011;7770;52.158;5.372;2024-03-23T04:01:50;23.13;;;8.03;;
15340;SDS011;7770;52.158;5.372;2024-03-23T04:04:36;23.53;;;8.10;;
15340;SDS011;7770;52.158;5.372;2024-03-23T04:07:22;24.87;;;8.27;;
15340;SDS011;7770;52.158;5.372;2024-03-23T04:10:09;23.17;;;7.50;;
15340;SDS011;7770;52.158;5.372;2024-03-23T04:12:55;25.80;;;7.80;;
15340;SDS011;7770;52.158;5.372;2024-03-23T04:15:41;23.73;;;7.63;;
15340;SDS011;7770;52.158;5.372;2024-03-23T04:18:27;27.80;;;8.30;;
15340;SDS011;7770;52.158;5.372;2024-03-23T04:21:13;24.77;;;8.63;;
15340;SDS011;7770;52.158;5.372;2024-03-23T04:23:59;19.23;;;8.10;;
15340;SDS011;7770;52.158;5.372;2024-03-23T04:26:45;18.37;;;7.60;;
15340;SDS011;7770;52.158;5.372;2024-03-23T04:29:31;18.37;;;7.77;;
15340;SDS011;7770;52.158;5.372;2024-03-23T04:32:17;24.67;;;7.83;;
15340;SDS011;7770;52.158;5.372;2024-03-23T04:35:03;16.93;;;7.00;;
15340;SDS011;7770;52.158;5.372;2024-03-23T04:37:51;20.67;;;7.00;;
15340;SDS011;7770;52.158;5.372;2024-03-23T04:40:38;21.87;;;7.43;;
15340;SDS011;7770;52.158;5.372;2024-03-23T04:43:24;18.70;;;7.20;;
15340;SDS011;7770;52.158;5.372;2024-03-23T04:46:11;19.13;;;7.60;;
15340;SDS011;7770;52.158;5.372;2024-03-23T04:48:57;27.53;;;8.20;;
15340;SDS011;7770;52.158;5.372;2024-03-23T04:51:43;19.73;;;7.47;;
15340;SDS011;7770;52.158;5.372;2024-03-23T04:54:31;30.73;;;9.17;;
15340;SDS011;7770;52.158;5.372;2024-03-23T04:57:17;29.53;;;9.37;;
15340;SDS011;7770;52.158;5.372;2024-03-23T05:00:04;26.97;;;8.83;;
15340;SDS011;7770;52.158;5.372;2024-03-23T05:03:02;19.20;;;9.23;;
15340;SDS011;7770;52.158;5.372;2024-03-23T05:05:49;23.33;;;9.20;;
15340;SDS011;7770;52.158;5.372;2024-03-23T05:08:35;18.67;;;8.57;;
15340;SDS011;7770;52.158;5.372;2024-03-23T05:11:21;18.37;;;8.53;;
15340;SDS011;7770;52.158;5.372;2024-03-23T05:14:08;27.73;;;9.00;;
15340;SDS011;7770;52.158;5.372;2024-03-23T05:16:54;19.00;;;8.10;;
15340;SDS011;7770;52.158;5.372;2024-03-23T05:19:41;20.73;;;7.67;;
15340;SDS011;7770;52.158;5.372;2024-03-23T05:22:27;27.97;;;8.40;;
15340;SDS011;7770;52.158;5.372;2024-03-23T05:25:13;21.17;;;7.87;;
15340;SDS011;7770;52.158;5.372;2024-03-23T05:27:59;24.20;;;7.67;;
15340;SDS011;7770;52.158;5.372;2024-03-23T05:30:52;18.37;;;7.10;;
15340;SDS011;7770;52.158;5.372;2024-03-23T05:33:38;16.50;;;6.90;;
15340;SDS011;7770;52.158;5.372;2024-03-23T05:36:24;18.47;;;6.23;;
15340;SDS011;7770;52.158;5.372;2024-03-23T05:39:10;13.53;;;6.50;;
15340;SDS011;7770;52.158;5.372;2024-03-23T05:41:56;18.40;;;5.83;;
15340;SDS011;7770;52.158;5.372;2024-03-23T05:44:43;21.17;;;6.33;;
15340;SDS011;7770;52.158;5.372;2024-03-23T05:47:32;18.63;;;6.07;;
15340;SDS011;7770;52.158;5.372;2024-03-23T05:50:18;16.13;;;6.03;;
15340;SDS011;7770;52.158;5.372;2024-03-23T05:53:04;14.30;;;5.77;;
15340;SDS011;7770;52.158;5.372;2024-03-23T05:55:51;16.80;;;5.80;;
15340;SDS011;7770;52.158;5.372;2024-03-23T05:58:46;13.40;;;5.47;;
15340;SDS011;7770;52.158;5.372;2024-03-23T06:01:32;15.77;;;4.97;;
15340;SDS011;7770;52.158;5.372;2024-03-23T06:04:18;17.37;;;5.40;;
15340;SDS011;7770;52.158;5.372;2024-03-23T06:07:04;14.83;;;5.10;;
15340;SDS011;7770;52.158;5.372;2024-03-23T06:09:58;14.30;;;5.30;;
15340;SDS011;7770;52.158;5.372;2024-03-23T06:12:48;17.37;;;4.63;;
15340;SDS011;7770;52.158;5.372;2024-03-23T06:15:35;10.67;;;4.13;;
15340;SDS011;7770;52.158;5.372;2024-03-23T06:18:23;8.93;;;4.40;;
15340;SDS011;7770;52.158;5.372;2024-03-23T06:21:13;12.37;;;4.60;;
15340;SDS011;7770;52.158;5.372;2024-03-23T06:23:59;17.17;;;4.87;;
15340;SDS011;7770;52.158;5.372;2024-03-23T06:26:45;10.03;;;4.40;;
15340;SDS011;7770;52.158;5.372;2024-03-23T06:29:31;11.03;;;4.50;;
15340;SDS011;7770;52.158;5.372;2024-03-23T06:32:17;12.83;;;4.13;;
15340;SDS011;7770;52.158;5.372;2024-03-23T06:35:04;15.73;;;4.07;;
15340;SDS011;7770;52.158;5.372;2024-03-23T06:37:53;11.93;;;4.27;;
15340;SDS011;7770;52.158;5.372;2024-03-23T06:40:39;10.70;;;4.27;;
15340;SDS011;7770;52.158;5.372;2024-03-23T06:43:25;13.67;;;4.60;;
15340;SDS011;7770;52.158;5.372;2024-03-23T06:46:11;12.43;;;4.50;;
15340;SDS011;7770;52.158;5.372;2024-03-23T06:48:57;11.03;;;4.40;;
15340;SDS011;7770;52.158;5.372;2024-03-23T06:51:44;12.67;;;4.00;;
15340;SDS011;7770;52.158;5.372;2024-03-23T06:54:31;13.17;;;3.70;;
15340;SDS011;7770;52.158;5.372;2024-03-23T06:57:17;8.73;;;4.00;;
15340;SDS011;7770;52.158;5.372;2024-03-23T07:00:03;13.80;;;4.20;;
15340;SDS011;7770;52.158;5.372;2024-03-23T07:02:50;14.23;;;4.67;;
15340;SDS011;7770;52.158;5.372;2024-03-23T07:05:36;8.27;;;4.50;;
15340;SDS011;7770;52.158;5.372;2024-03-23T07:08:22;11.87;;;4.73;;
15340;SDS011;7770;52.158;5.372;2024-03-23T07:11:08;10.23;;;4.60;;
15340;SDS011;7770;52.158;5.372;2024-03-23T07:13:54;9.03;;;4.40;;
15340;SDS011;7770;52.158;5.372;2024-03-23T07:16:40;12.10;;;4.43;;
15340;SDS011;7770;52.158;5.372;2024-03-23T07:19:26;8.33;;;3.80;;
15340;SDS011;7770;52.158;5.372;2024-03-23T07:22:13;8.93;;;4.10;;
15340;SDS011;7770;52.158;5.372;2024-03-23T07:25:00;13.10;;;4.60;;
15340;SDS011;7770;52.158;5.372;2024-03-23T07:27:47;12.43;;;4.83;;
15340;SDS011;7770;52.158;5.372;2024-03-23T07:30:33;9.30;;;4.60;;
15340;SDS011;7770;52.158;5.372;2024-03-23T07:33:19;9.63;;;4.70;;
15340;SDS011;7770;52.158;5.372;2024-03-23T07:36:05;12.50;;;4.40;;
15340;SDS011;7770;52.158;5.372;2024-03-23T07:38:51;10.70;;;4.70;;
15340;SDS011;7770;52.158;5.372;2024-03-23T07:41:38;9.80;;;4.47;;
15340;SDS011;7770;52.158;5.372;2024-03-23T07:44:24;10.80;;;4.67;;
15340;SDS011;7770;52.158;5.372;2024-03-23T07:47:10;14.83;;;4.70;;
15340;SDS011;7770;52.158;5.372;2024-03-23T07:49:57;9.93;;;3.90;;
15340;SDS011;7770;52.158;5.372;2024-03-23T07:52:44;9.80;;;4.30;;
15340;SDS011;7770;52.158;5.372;2024-03-23T07:55:30;10.17;;;4.20;;
15340;SDS011;7770;52.158;5.372;2024-03-23T07:58:16;8.93;;;3.93;;
15340;SDS011;7770;52.158;5.372;2024-03-23T08:01:09;11.27;;;4.27;;
15340;SDS011;7770;52.158;5.372;2024-03-23T08:04:00;11.97;;;4.33;;
15340;SDS011;7770;52.158;5.372;2024-03-23T08:06:46;12.80;;;4.03;;
15340;SDS011;7770;52.158;5.372;2024-03-23T08:09:32;10.97;;;4.20;;
15340;SDS011;7770;52.158;5.372;2024-03-23T08:12:18;8.23;;;3.83;;
15340;SDS011;7770;52.158;5.372;2024-03-23T08:15:05;12.50;;;3.97;;
15340;SDS011;7770;52.158;5.372;2024-03-23T08:17:51;10.63;;;4.07;;
15340;SDS011;7770;52.158;5.372;2024-03-23T08:20:37;7.50;;;3.50;;
15340;SDS011;7770;52.158;5.372;2024-03-23T08:23:24;11.17;;;3.83;;
15340;SDS011;7770;52.158;5.372;2024-03-23T08:26:12;10.07;;;4.27;;
15340;SDS011;7770;52.158;5.372;2024-03-23T08:28:59;10.57;;;3.80;;
15340;SDS011;7770;52.158;5.372;2024-03-23T08:31:45;9.07;;;3.47;;
15340;SDS011;7770;52.158;5.372;2024-03-23T08:34:31;9.37;;;3.70;;
15340;SDS011;7770;52.158;5.372;2024-03-23T08:37:17;9.70;;;3.60;;
15340;SDS011;7770;52.158;5.372;2024-03-23T08:40:03;11.90;;;3.70;;
15340;SDS011;7770;52.158;5.372;2024-03-23T08:42:50;10.77;;;3.73;;
15340;SDS011;7770;52.158;5.372;2024-03-23T08:45:36;11.80;;;3.97;;
15340;SDS011;7770;52.158;5.372;2024-03-23T08:48:22;7.67;;;3.30;;
15340;SDS011;7770;52.158;5.372;2024-03-23T08:51:08;8.20;;;3.00;;
15340;SDS011;7770;52.158;5.372;2024-03-23T08:53:55;12.10;;;4.27;;
15340;SDS011;7770;52.158;5.372;2024-03-23T08:56:41;9.50;;;3.30;;
15340;SDS011;7770;52.158;5.372;2024-03-23T08:59:27;7.07;;;2.93;;
15340;SDS011;7770;52.158;5.372;2024-03-23T09:02:13;7.10;;;2.87;;
15340;SDS011;7770;52.158;5.372;2024-03-23T09:04:59;8.33;;;3.20;;
15340;SDS011;7770;52.158;5.372;2024-03-23T09:07:49;7.40;;;2.87;;
15340;SDS011;7770;52.158;5.372;2024-03-23T09:10:38;5.27;;;2.70;;
15340;SDS011;7770;52.158;5.372;2024-03-23T09:13:24;5.50;;;2.47;;
15340;SDS011;7770;52.158;5.372;2024-03-23T09:16:10;5.07;;;2.10;;
15340;SDS011;7770;52.158;5.372;2024-03-23T09:18:56;9.20;;;2.73;;
15340;SDS011;7770;52.158;5.372;2024-03-23T09:21:42;7.23;;;2.70;;
15340;SDS011;7770;52.158;5.372;2024-03-23T09:24:28;6.30;;;2.93;;
15340;SDS011;7770;52.158;5.372;2024-03-23T09:27:14;8.63;;;2.80;;
15340;SDS011;7770;52.158;5.372;2024-03-23T09:30:00;7.87;;;2.77;;
15340;SDS011;7770;52.158;5.372;2024-03-23T09:32:46;6.83;;;2.63;;
15340;SDS011;7770;52.158;5.372;2024-03-23T09:35:36;5.10;;;2.77;;
15340;SDS011;7770;52.158;5.372;2024-03-23T09:38:26;7.90;;;2.90;;
15340;SDS011;7770;52.158;5.372;2024-03-23T09:41:12;6.70;;;2.90;;
15340;SDS011;7770;52.158;5.372;2024-03-23T09:44:00;11.07;;;4.27;;
15340;SDS011;7770;52.158;5.372;2024-03-23T09:46:47;14.60;;;6.10;;
15340;SDS011;7770;52.158;5.372;2024-03-23T09:49:33;11.10;;;3.50;;
15340;SDS011;7770;52.158;5.372;2024-03-23T09:52:21;13.77;;;5.13;;
15340;SDS011;7770;52.158;5.372;2024-03-23T09:55:08;15.90;;;6.37;;
15340;SDS011;7770;52.158;5.372;2024-03-23T09:57:55;9.50;;;3.80;;
15340;SDS011;7770;52.158;5.372;2024-03-23T10:00:41;8.03;;;3.83;;
15340;SDS011;7770;52.158;5.372;2024-03-23T10:03:27;9.30;;;3.93;;
15340;SDS011;7770;52.158;5.372;2024-03-23T10:06:13;7.63;;;3.67;;
15340;SDS011;7770;52.158;5.372;2024-03-23T10:08:59;7.67;;;3.40;;
15340;SDS011;7770;52.158;5.372;2024-03-23T10:11:45;9.97;;;3.83;;
15340;SDS011;7770;52.158;5.372;2024-03-23T10:14:34;8.50;;;3.17;;
15340;SDS011;7770;52.158;5.372;2024-03-23T10:17:21;7.97;;;3.27;;
15340;SDS011;7770;52.158;5.372;2024-03-23T10:20:09;9.40;;;3.33;;
15340;SDS011;7770;52.158;5.372;2024-03-23T10:22:56;9.43;;;3.30;;
15340;SDS011;7770;52.158;5.372;2024-03-23T10:25:43;6.43;;;3.03;;
15340;SDS011;7770;52.158;5.372;2024-03-23T10:28:29;6.20;;;3.00;;
15340;SDS011;7770;52.158;5.372;2024-03-23T10:31:15;11.37;;;3.70;;
15340;SDS011;7770;52.158;5.372;2024-03-23T10:34:02;6.13;;;3.07;;
15340;SDS011;7770;52.158;5.372;2024-03-23T10:36:49;7.37;;;3.23;;
15340;SDS011;7770;52.158;5.372;2024-03-23T10:39:36;6.87;;;3.10;;
15340;SDS011;7770;52.158;5.372;2024-03-23T10:42:27;9.63;;;3.07;;
15340;SDS011;7770;52.158;5.372;2024-03-23T10:45:13;9.87;;;3.20;;
15340;SDS011;7770;52.158;5.372;2024-03-23T10:47:59;8.83;;;2.97;;
15340;SDS011;7770;52.158;5.372;2024-03-23T10:50:45;8.67;;;2.90;;
15340;SDS011;7770;52.158;5.372;2024-03-23T10:53:31;8.43;;;3.10;;
15340;SDS011;7770;52.158;5.372;2024-03-23T10:56:20;11.17;;;3.13;;
15340;SDS011;7770;52.158;5.372;2024-03-23T10:59:07;7.63;;;2.90;;
15340;SDS011;7770;52.158;5.372;2024-03-23T11:01:57;6.47;;;2.60;;
15340;SDS011;7770;52.158;5.372;2024-03-23T11:04:44;5.73;;;2.60;;
15340;SDS011;7770;52.158;5.372;2024-03-23T11:07:33;6.57;;;2.90;;
15340;SDS011;7770;52.158;5.372;2024-03-23T11:10:26;9.60;;;2.87;;
15340;SDS011;7770;52.158;5.372;2024-03-23T11:13:21;7.43;;;2.70;;
15340;SDS011;7770;52.158;5.372;2024-03-23T11:16:13;5.37;;;2.80;;
15340;SDS011;7770;52.158;5.372;2024-03-23T11:22:42;7.07;;;2.60;;
15340;SDS011;7770;52.158;5.372;2024-03-23T11:25:29;8.97;;;3.03;;
15340;SDS011;7770;52.158;5.372;2024-03-23T11:28:15;8.43;;;3.00;;
15340;SDS011;7770;52.158;5.372;2024-03-23T11:31:08;9.70;;;2.97;;
15340;SDS011;7770;52.158;5.372;2024-03-23T11:34:03;8.20;;;2.60;;
15340;SDS011;7770;52.158;5.372;2024-03-23T11:36:50;8.73;;;3.07;;
15340;SDS011;7770;52.158;5.372;2024-03-23T11:39:49;8.63;;;2.90;;
15340;SDS011;7770;52.158;5.372;2024-03-23T11:42:35;11.20;;;3.33;;
15340;SDS011;7770;52.158;5.372;2024-03-23T11:45:21;9.93;;;3.30;;
15340;SDS011;7770;52.158;5.372;2024-03-23T11:48:08;11.10;;;3.07;;
15340;SDS011;7770;52.158;5.372;2024-03-23T11:50:57;7.53;;;3.00;;
15340;SDS011;7770;52.158;5.372;2024-03-23T11:53:43;6.00;;;2.80;;
15340;SDS011;7770;52.158;5.372;2024-03-23T11:56:29;6.93;;;3.00;;
15340;SDS011;7770;52.158;5.372;2024-03-23T11:59:29;7.13;;;2.67;;
15340;SDS011;7770;52.158;5.372;2024-03-23T12:02:25;6.30;;;2.90;;
15340;SDS011;7770;52.158;5.372;2024-03-23T12:05:15;8.67;;;3.07;;
15340;SDS011;7770;52.158;5.372;2024-03-23T12:08:18;10.67;;;3.33;;
15340;SDS011;7770;52.158;5.372;2024-03-23T12:11:15;9.77;;;2.93;;
15340;SDS011;7770;52.158;5.372;2024-03-23T12:14:02;10.63;;;3.00;;
15340;SDS011;7770;52.158;5.372;2024-03-23T12:16:48;6.63;;;3.03;;
15340;SDS011;7770;52.158;5.372;2024-03-23T12:19:34;10.17;;;3.03;;
15340;SDS011;7770;52.158;5.372;2024-03-23T12:22:20;8.57;;;3.30;;
15340;SDS011;7770;52.158;5.372;2024-03-23T12:25:07;8.50;;;2.63;;
15340;SDS011;7770;52.158;5.372;2024-03-23T12:27:53;7.27;;;2.87;;
15340;SDS011;7770;52.158;5.372;2024-03-23T12:30:39;10.13;;;3.47;;
15340;SDS011;7770;52.158;5.372;2024-03-23T12:33:25;10.40;;;3.10;;
15340;SDS011;7770;52.158;5.372;2024-03-23T12:36:11;7.33;;;3.07;;
15340;SDS011;7770;52.158;5.372;2024-03-23T12:38:57;6.53;;;2.80;;
15340;SDS011;7770;52.158;5.372;2024-03-23T12:41:43;8.57;;;2.87;;
15340;SDS011;7770;52.158;5.372;2024-03-23T12:44:29;7.03;;;3.10;;
15340;SDS011;7770;52.158;5.372;2024-03-23T12:47:16;10.30;;;3.07;;
15340;SDS011;7770;52.158;5.372;2024-03-23T12:50:02;8.63;;;2.80;;
15340;SDS011;7770;52.158;5.372;2024-03-23T12:52:48;8.00;;;2.90;;
15340;SDS011;7770;52.158;5.372;2024-03-23T12:55:35;8.17;;;3.13;;
15340;SDS011;7770;52.158;5.372;2024-03-23T12:58:21;8.03;;;2.80;;
15340;SDS011;7770;52.158;5.372;2024-03-23T13:01:07;11.27;;;3.10;;
15340;SDS011;7770;52.158;5.372;2024-03-23T13:03:53;7.30;;;2.83;;
15340;SDS011;7770;52.158;5.372;2024-03-23T13:06:39;4.73;;;2.40;;
15340;SDS011;7770;52.158;5.372;2024-03-23T13:09:25;7.97;;;3.00;;
15340;SDS011;7770;52.158;5.372;2024-03-23T13:12:11;6.87;;;2.90;;
15340;SDS011;7770;52.158;5.372;2024-03-23T13:14:57;8.63;;;3.07;;
15340;SDS011;7770;52.158;5.372;2024-03-23T13:17:47;8.83;;;2.40;;
15340;SDS011;7770;52.158;5.372;2024-03-23T13:20:35;11.63;;;2.73;;
15340;SDS011;7770;52.158;5.372;2024-03-23T13:23:21;8.33;;;2.63;;
15340;SDS011;7770;52.158;5.372;2024-03-23T13:26:07;6.43;;;2.60;;
15340;SDS011;7770;52.158;5.372;2024-03-23T13:28:53;4.57;;;1.90;;
15340;SDS011;7770;52.158;5.372;2024-03-23T13:31:39;3.73;;;1.40;;
15340;SDS011;7770;52.158;5.372;2024-03-23T13:34:25;3.40;;;1.20;;
15340;SDS011;7770;52.158;5.372;2024-03-23T13:37:11;3.20;;;1.40;;
15340;SDS011;7770;52.158;5.372;2024-03-23T13:39:58;4.60;;;1.77;;
15340;SDS011;7770;52.158;5.372;2024-03-23T13:42:44;3.00;;;1.57;;
15340;SDS011;7770;52.158;5.372;2024-03-23T13:45:30;5.30;;;2.20;;
15340;SDS011;7770;52.158;5.372;2024-03-23T13:48:16;5.77;;;2.13;;
15340;SDS011;7770;52.158;5.372;2024-03-23T13:53:39;5.17;;;2.30;;
15340;SDS011;7770;52.158;5.372;2024-03-23T13:56:25;5.30;;;2.30;;
15340;SDS011;7770;52.158;5.372;2024-03-23T13:59:14;9.03;;;2.87;;
15340;SDS011;7770;52.158;5.372;2024-03-23T14:02:00;8.03;;;2.50;;
15340;SDS011;7770;52.158;5.372;2024-03-23T14:04:46;5.57;;;2.97;;
15340;SDS011;7770;52.158;5.372;2024-03-23T14:07:32;9.77;;;3.00;;
15340;SDS011;7770;52.158;5.372;2024-03-23T14:10:18;7.40;;;2.90;;
15340;SDS011;7770;52.158;5.372;2024-03-23T14:13:04;10.43;;;3.03;;
15340;SDS011;7770;52.158;5.372;2024-03-23T14:15:53;7.97;;;3.00;;
15340;SDS011;7770;52.158;5.372;2024-03-23T14:18:39;9.63;;;3.10;;
15340;SDS011;7770;52.158;5.372;2024-03-23T14:21:25;9.43;;;3.37;;
15340;SDS011;7770;52.158;5.372;2024-03-23T14:24:11;10.20;;;2.87;;
15340;SDS011;7770;52.158;5.372;2024-03-23T14:26:58;9.67;;;3.60;;
15340;SDS011;7770;52.158;5.372;2024-03-23T14:29:45;8.27;;;2.80;;
15340;SDS011;7770;52.158;5.372;2024-03-23T14:32:32;5.10;;;2.97;;
15340;SDS011;7770;52.158;5.372;2024-03-23T14:35:22;8.50;;;2.83;;
15340;SDS011;7770;52.158;5.372;2024-03-23T14:38:09;10.23;;;2.90;;
15340;SDS011;7770;52.158;5.372;2024-03-23T14:40:59;9.17;;;3.50;;
15340;SDS011;7770;52.158;5.372;2024-03-23T14:43:46;6.33;;;2.77;;
15340;SDS011;7770;52.158;5.372;2024-03-23T14:46:33;5.67;;;2.57;;
15340;SDS011;7770;52.158;5.372;2024-03-23T14:49:19;8.87;;;3.00;;
15340;SDS011;7770;52.158;5.372;2024-03-23T14:52:06;9.43;;;2.70;;
15340;SDS011;7770;52.158;5.372;2024-03-23T14:54:54;4.07;;;2.23;;
15340;SDS011;7770;52.158;5.372;2024-03-23T14:57:42;4.67;;;2.23;;
15340;SDS011;7770;52.158;5.372;2024-03-23T15:00:28;6.57;;;2.53;;
15340;SDS011;7770;52.158;5.372;2024-03-23T15:03:14;6.10;;;2.50;;
15340;SDS011;7770;52.158;5.372;2024-03-23T15:06:00;9.50;;;2.97;;
15340;SDS011;7770;52.158;5.372;2024-03-23T15:08:47;7.60;;;2.60;;
15340;SDS011;7770;52.158;5.372;2024-03-23T15:11:33;8.07;;;2.50;;
15340;SDS011;7770;52.158;5.372;2024-03-23T15:14:19;12.23;;;2.57;;
15340;SDS011;7770;52.158;5.372;2024-03-23T15:17:06;8.47;;;2.57;;
15340;SDS011;7770;52.158;5.372;2024-03-23T15:19:53;5.87;;;2.50;;
15340;SDS011;7770;52.158;5.372;2024-03-23T15:22:39;5.10;;;2.13;;
15340;SDS011;7770;52.158;5.372;2024-03-23T15:25:25;6.23;;;2.43;;
15340;SDS011;7770;52.158;5.372;2024-03-23T15:28:12;11.87;;;2.57;;
15340;SDS011;7770;52.158;5.372;2024-03-23T15:30:59;6.60;;;2.57;;
15340;SDS011;7770;52.158;5.372;2024-03-23T15:33:45;10.27;;;3.00;;
15340;SDS011;7770;52.158;5.372;2024-03-23T15:36:31;6.87;;;2.73;;
15340;SDS011;7770;52.158;5.372;2024-03-23T15:39:17;5.83;;;2.30;;
15340;SDS011;7770;52.158;5.372;2024-03-23T15:42:03;5.50;;;2.67;;
15340;SDS011;7770;52.158;5.372;2024-03-23T15:44:50;5.87;;;2.60;;
15340;SDS011;7770;52.158;5.372;2024-03-23T15:47:36;6.80;;;3.33;;
15340;SDS011;7770;52.158;5.372;2024-03-23T15:50:23;7.23;;;2.80;;
15340;SDS011;7770;52.158;5.372;2024-03-23T15:53:09;7.80;;;2.97;;
15340;SDS011;7770;52.158;5.372;2024-03-23T15:58:48;8.70;;;3.10;;
15340;SDS011;7770;52.158;5.372;2024-03-23T16:01:34;9.30;;;3.53;;
15340;SDS011;7770;52.158;5.372;2024-03-23T16:04:20;11.17;;;4.13;;
15340;SDS011;7770;52.158;5.372;2024-03-23T16:07:06;7.13;;;3.30;;
15340;SDS011;7770;52.158;5.372;2024-03-23T16:09:52;11.07;;;3.27;;
15340;SDS011;7770;52.158;5.372;2024-03-23T16:12:38;6.63;;;2.90;;
15340;SDS011;7770;52.158;5.372;2024-03-23T16:15:25;9.43;;;3.40;;
15340;SDS011;7770;52.158;5.372;2024-03-23T16:18:11;6.97;;;3.30;;
15340;SDS011;7770;52.158;5.372;2024-03-23T16:20:58;8.80;;;3.27;;
15340;SDS011;7770;52.158;5.372;2024-03-23T16:23:46;7.47;;;3.07;;
15340;SDS011;7770;52.158;5.372;2024-03-23T16:26:32;7.47;;;2.90;;
15340;SDS011;7770;52.158;5.372;2024-03-23T16:29:18;5.70;;;2.90;;
15340;SDS011;7770;52.158;5.372;2024-03-23T16:32:04;4.97;;;3.00;;
15340;SDS011;7770;52.158;5.372;2024-03-23T16:34:50;4.00;;;2.17;;
15340;SDS011;7770;52.158;5.372;2024-03-23T16:37:37;6.10;;;1.93;;
15340;SDS011;7770;52.158;5.372;2024-03-23T16:40:23;8.53;;;2.80;;
15340;SDS011;7770;52.158;5.372;2024-03-23T16:43:09;9.43;;;2.27;;
15340;SDS011;7770;52.158;5.372;2024-03-23T16:45:59;4.07;;;1.77;;
15340;SDS011;7770;52.158;5.372;2024-03-23T16:48:50;5.13;;;1.97;;
15340;SDS011;7770;52.158;5.372;2024-03-23T16:51:36;3.97;;;2.00;;
15340;SDS011;7770;52.158;5.372;2024-03-23T16:54:22;6.50;;;2.40;;
15340;SDS011;7770;52.158;5.372;2024-03-23T16:57:08;7.13;;;4.50;;
15340;SDS011;7770;52.158;5.372;2024-03-23T16:59:54;8.97;;;4.50;;
15340;SDS011;7770;52.158;5.372;2024-03-23T17:02:40;6.53;;;2.80;;
15340;SDS011;7770;52.158;5.372;2024-03-23T17:05:26;4.87;;;2.30;;
15340;SDS011;7770;52.158;5.372;2024-03-23T17:08:12;4.37;;;2.03;;
15340;SDS011;7770;52.158;5.372;2024-03-23T17:10:59;6.77;;;3.87;;
15340;SDS011;7770;52.158;5.372;2024-03-23T17:13:50;8.73;;;7.77;;
15340;SDS011;7770;52.158;5.372;2024-03-23T17:16:39;16.97;;;14.53;;
15340;SDS011;7770;52.158;5.372;2024-03-23T17:19:25;29.60;;;17.00;;
15340;SDS011;7770;52.158;5.372;2024-03-23T17:22:12;27.37;;;19.77;;
15340;SDS011;7770;52.158;5.372;2024-03-23T17:24:58;41.60;;;33.40;;
15340;SDS011;7770;52.158;5.372;2024-03-23T17:27:44;45.87;;;37.60;;
15340;SDS011;7770;52.158;5.372;2024-03-23T17:30:30;10.17;;;7.10;;
15340;SDS011;7770;52.158;5.372;2024-03-23T17:33:16;27.17;;;23.33;;
15340;SDS011;7770;52.158;5.372;2024-03-23T17:36:03;17.93;;;16.10;;
15340;SDS011;7770;52.158;5.372;2024-03-23T17:38:49;8.70;;;7.80;;
15340;SDS011;7770;52.158;5.372;2024-03-23T17:41:35;11.50;;;9.30;;
15340;SDS011;7770;52.158;5.372;2024-03-23T17:44:22;14.97;;;13.57;;
15340;SDS011;7770;52.158;5.372;2024-03-23T17:47:08;12.07;;;10.87;;
15340;SDS011;7770;52.158;5.372;2024-03-23T17:49:54;9.70;;;8.03;;
15340;SDS011;7770;52.158;5.372;2024-03-23T17:52:42;7.83;;;5.40;;